Terminal Aerodrome Forecast
Issued by NWS

Home | Current Version | Previous Version | Text Only | Print | Product List | Glossary On
Versions: 1 2 3 4 5 6 7 8 9 10 11 12 13 14 15 16 17 18 19 20 21 22 23 24 25 26 27 28 29 30 31 32 33 34 35 36 37 38 39 40 41 42 43 44 45 46
000
FTUS42 KRAH 280243 AAC
TAFINT
TAF AMD
KINT 280243Z 2803/2824 01010G22KT 4SM -TSRA BR BKN040CB
      TEMPO 2803/2804 1SM TSRA BR OVC030CB
     FM280400 VRB05KT P6SM OVC080
      TEMPO 2804/2806 4SM -TSRA BR BKN025CB
     FM281600 24009KT P6SM BKN050=

USA.gov is the U.S. government's official web portal to all federal, state and local government web resources and services.